.
WxDataArchive / Data Records for 2015-04-15
2015-04-14 April 2015 2015-04-16

Data Records for Wednesday, 15 April 2015

Time	Temp	Chill	HIndex	Humid	Dewpt	 Wind 	HiWind	WindDir	Rain 	Barom
-----	----	-----	------	-----	-----	------	------	-------	-----	-----
00:00	45.5	45.5	45.5	60	32.4	0	0	---	0.00	30.222 
00:05	45.5	45.5	45.5	61	32.8	0	0	---	0.00	30.222 
00:10	45.2	45.2	45.2	61	32.6	0	0	---	0.00	30.222 
00:15	44.9	44.9	44.9	61	32.3	0	0	---	0.00	30.221 
00:20	44.6	44.6	44.6	61	32.0	0	0	---	0.00	30.221 
00:25	44.3	44.3	44.3	62	32.1	0	0	---	0.00	30.221 
00:30	44.1	44.1	44.1	62	31.9	0	0	---	0.00	30.224 
00:35	43.8	43.8	43.8	63	32.0	0	0	---	0.00	30.224 
00:40	43.3	43.3	43.3	64	32.0	0	0	---	0.00	30.224 
00:45	43.1	43.1	43.1	64	31.8	0	0	---	0.00	30.223 
00:50	42.8	42.8	42.8	65	31.9	0	0	---	0.00	30.223 
00:55	42.5	42.5	42.5	65	31.6	0	0	---	0.00	30.223 
01:00	42.2	42.2	42.2	66	31.7	0	0	---	0.00	30.226 
01:05	41.9	41.9	41.9	67	31.8	0	0	---	0.00	30.226 
01:10	41.6	41.6	41.6	68	31.8	0	0	---	0.00	30.226 
01:15	41.5	41.5	41.5	68	31.7	0	0	---	0.00	30.220 
01:20	41.2	41.2	41.2	69	31.8	0	0	---	0.00	30.220 
01:25	40.9	40.9	40.9	69	31.5	0	0	---	0.00	30.220 
01:30	40.8	40.8	40.8	71	32.1	0	0	---	0.00	30.217 
01:35	40.6	40.6	40.6	72	32.3	0	0	---	0.00	30.217 
01:40	40.5	40.5	40.5	73	32.5	0	0	---	0.00	30.217 
01:45	40.3	40.3	40.3	74	32.7	0	0	---	0.00	30.220 
01:50	40.2	40.2	40.2	75	32.9	0	0	---	0.00	30.220 
01:55	40.1	40.1	40.1	75	32.8	0	0	---	0.00	30.220 
02:00	39.9	39.9	39.9	76	33.0	0	0	---	0.00	30.220 
02:05	39.9	39.9	39.9	76	33.0	0	0	---	0.00	30.220 
02:10	39.9	39.9	39.9	77	33.3	0	0	---	0.00	30.220 
02:15	39.8	39.8	39.8	77	33.2	0	0	---	0.00	30.213 
02:20	39.8	39.8	39.8	77	33.2	0	0	---	0.00	30.213 
02:25	39.6	39.6	39.6	77	33.0	0	0	---	0.00	30.213 
02:30	39.5	39.5	39.5	78	33.2	0	0	---	0.00	30.210 
02:35	39.5	39.5	39.5	78	33.2	0	0	---	0.00	30.210 
02:40	39.5	39.5	39.5	79	33.5	0	0	---	0.00	30.210 
02:45	39.5	39.5	39.5	79	33.5	0	0	---	0.00	30.210 
02:50	39.5	39.5	39.5	80	33.9	0	0	---	0.00	30.210 
02:55	39.5	39.5	39.5	80	33.9	0	0	---	0.00	30.210 
03:00	39.5	39.5	39.5	80	33.9	0	0	---	0.00	30.208 
03:05	39.3	39.3	39.3	80	33.7	0	0	---	0.00	30.208 
03:10	39.3	39.3	39.3	80	33.7	0	0	---	0.00	30.208 
03:15	39.3	39.3	39.3	80	33.7	0	0	---	0.00	30.208 
03:20	39.3	39.3	39.3	80	33.7	0	0	---	0.00	30.208 
03:25	39.3	39.3	39.3	81	34.0	0	0	---	0.00	30.208 
03:30	39.2	39.2	39.2	81	33.9	0	0	---	0.00	30.204 
03:35	39.2	39.2	39.2	81	33.9	0	0	---	0.00	30.204 
03:40	39.2	39.2	39.2	81	33.9	0	0	---	0.00	30.204 
03:45	39.3	39.3	39.3	81	34.0	0	0	---	0.00	30.204 
03:50	39.3	39.3	39.3	82	34.3	0	0	---	0.00	30.204 
03:55	39.3	39.3	39.3	82	34.3	0	0	---	0.00	30.204 
04:00	39.3	39.3	39.3	82	34.3	0	0	---	0.00	30.208 
04:05	39.2	39.2	39.2	82	34.2	0	0	---	0.00	30.208 
04:10	39.2	39.2	39.2	82	34.2	0	0	---	0.00	30.208 
04:15	39.1	39.1	39.1	82	34.1	0	0	---	0.00	30.209 
04:20	39.1	39.1	39.1	82	34.1	0	0	---	0.00	30.209 
04:25	39.1	39.1	39.1	82	34.1	0	0	---	0.00	30.209 
04:30	39.1	39.1	39.1	82	34.1	0	0	---	0.00	30.204 
04:35	39.1	39.1	39.1	82	34.1	0	0	---	0.00	30.204 
04:40	38.9	38.9	38.9	82	33.9	0	0	---	0.00	30.204 
04:45	39.1	39.1	39.1	81	33.8	0	0	---	0.00	30.203 
04:50	39.2	39.2	39.2	81	33.9	0	0	---	0.00	30.203 
04:55	39.5	39.5	39.5	80	33.9	0	0	---	0.00	30.203 
05:00	39.5	39.5	39.5	79	33.5	0	0	---	0.00	30.206 
05:05	39.5	39.5	39.5	78	33.2	0	0	---	0.00	30.206 
05:10	39.5	39.5	39.5	77	32.9	0	0	---	0.00	30.206 
05:15	39.5	39.5	39.5	76	32.6	0	0	---	0.00	30.204 
05:20	39.6	39.6	39.6	73	31.7	0	0	---	0.00	30.204 
05:25	39.9	39.9	39.9	71	31.3	0	1	338	0.00	30.204 
05:30	40.6	40.6	40.6	67	30.5	0	1	338	0.00	30.204 
05:35	41.5	41.5	41.5	64	30.2	0	0	---	0.00	30.204 
05:40	42.1	42.1	42.1	62	30.0	0	0	---	0.00	30.204 
05:45	42.5	42.5	42.5	61	30.0	0	0	---	0.00	30.199 
05:50	42.9	42.9	42.9	59	29.6	0	0	---	0.00	30.199 
05:55	43.2	43.2	43.2	58	29.4	0	0	---	0.00	30.199 
06:00	43.5	43.5	43.5	58	29.7	0	0	---	0.00	30.199 
06:05	43.6	43.6	43.6	57	29.4	0	2	338	0.00	30.199 
06:10	43.8	43.8	43.8	56	29.1	0	1	338	0.00	30.199 
06:15	44.1	44.1	44.1	55	29.0	0	1	338	0.00	30.205 
06:20	44.3	44.3	44.3	55	29.2	0	1	338	0.00	30.205 
06:25	44.5	44.5	44.5	55	29.3	0	1	338	0.00	30.205 
06:30	44.6	44.6	44.6	54	29.0	0	2	338	0.00	30.205 
06:35	44.9	44.9	44.9	54	29.3	0	3	90	0.00	30.205 
06:40	44.9	44.9	44.9	53	28.8	0	2	90	0.00	30.205 
06:45	45.1	45.1	45.1	53	29.0	0	3	90	0.00	30.211 
06:50	45.1	45.1	45.1	53	29.0	0	2	90	0.00	30.211 
06:55	45.1	45.1	45.1	53	29.0	0	1	90	0.00	30.211 
07:00	45.1	45.1	45.1	52	28.5	0	2	90	0.00	30.216 
07:05	45.1	45.1	45.1	52	28.5	0	1	90	0.00	30.216 
07:10	45.1	45.1	45.1	53	29.0	0	1	90	0.00	30.216 
07:15	45.2	45.2	45.2	51	28.2	1	4	90	0.00	30.225 
07:20	45.4	45.4	45.4	51	28.3	1	3	90	0.00	30.225 
07:25	45.5	45.5	45.5	50	28.0	1	5	90	0.00	30.225 
07:30	45.7	45.7	45.7	50	28.1	1	5	90	0.00	30.227 
07:35	45.8	45.8	45.8	51	28.7	2	4	112	0.00	30.227 
07:40	46.0	46.0	46.0	50	28.4	3	5	112	0.00	30.227 
07:45	46.0	46.0	46.0	51	28.9	1	7	112	0.00	30.240 
07:50	46.0	46.0	46.0	52	29.4	1	4	112	0.00	30.240 
07:55	46.0	46.0	46.0	53	29.8	1	4	112	0.00	30.240 
08:00	46.0	46.0	46.0	52	29.4	2	7	90	0.00	30.244 
08:05	46.1	46.1	46.1	52	29.5	3	7	90	0.00	30.244 
08:10	46.2	46.2	46.2	52	29.6	3	7	90	0.00	30.244 
08:15	46.1	46.1	46.1	53	29.9	3	6	90	0.00	30.256 
08:20	46.2	46.2	46.2	53	30.0	2	4	68	0.00	30.256 
08:25	46.2	46.2	46.2	53	30.0	2	6	90	0.00	30.256 
08:30	46.4	46.4	46.4	54	30.7	2	6	90	0.00	30.259 
08:35	46.4	46.4	46.4	54	30.7	2	4	90	0.00	30.259 
08:40	46.7	46.7	46.7	54	30.9	1	4	90	0.00	30.259 
08:45	47.0	47.0	47.0	53	30.8	3	7	90	0.00	30.259 
08:50	47.3	47.3	47.3	54	31.5	2	6	90	0.00	30.259 
08:55	47.6	47.6	47.6	54	31.8	2	6	90	0.00	30.259 
09:00	48.0	48.0	48.0	53	31.7	2	6	90	0.00	30.267 
09:05	48.3	48.3	48.3	53	32.0	2	4	90	0.00	30.267 
09:10	48.8	48.8	48.8	53	32.4	3	6	90	0.00	30.267 
09:15	49.1	49.1	49.1	52	32.2	3	6	112	0.00	30.273 
09:20	49.4	49.4	49.4	53	33.0	2	6	90	0.00	30.273 
09:25	49.5	49.5	49.5	51	32.1	3	7	90	0.00	30.273 
09:30	49.6	49.6	49.6	52	32.7	3	10	112	0.00	30.277 
09:35	49.8	49.8	49.8	50	31.9	3	8	90	0.00	30.277 
09:40	49.9	48.8	49.9	50	32.0	4	8	90	0.00	30.277 
09:45	50.1	50.1	50.1	51	32.7	3	7	90	0.00	30.289 
09:50	50.4	50.4	50.4	51	33.0	2	6	90	0.00	30.289 
09:55	50.8	50.8	50.8	50	32.8	2	6	90	0.00	30.289 
10:00	51.7	51.7	51.7	48	32.6	4	7	90	0.00	30.288 
10:05	52.5	52.5	52.5	47	32.9	3	7	112	0.00	30.288 
10:10	52.9	52.9	52.9	45	32.1	5	10	90	0.00	30.288 
10:15	53.1	53.1	53.1	45	32.3	5	10	90	0.00	30.292 
10:20	53.2	53.2	53.2	44	31.9	6	13	112	0.00	30.292 
10:25	53.3	53.3	53.3	45	32.5	5	10	90	0.00	30.292 
10:30	53.8	53.8	53.8	47	34.0	4	7	112	0.00	30.298 
10:35	54.4	54.4	54.4	46	34.1	4	6	112	0.00	30.298 
10:40	55.0	55.0	55.0	44	33.5	4	11	90	0.00	30.298 
10:45	55.3	55.3	55.3	44	33.8	5	11	112	0.00	30.301 
10:50	55.4	55.4	55.4	46	35.0	4	10	90	0.00	30.301 
10:55	55.9	55.9	55.9	45	34.9	5	11	112	0.00	30.301 
11:00	56.2	56.2	56.2	40	32.2	8	17	90	0.00	30.297 
11:05	56.6	56.6	56.6	39	31.9	8	16	90	0.00	30.297 
11:10	56.9	56.9	56.9	38	31.6	7	17	112	0.00	30.297 
11:15	57.3	57.3	57.3	36	30.6	7	15	90	0.00	30.293 
11:20	57.6	57.6	57.6	36	30.8	6	14	90	0.00	30.293 
11:25	58.1	58.1	58.1	35	30.6	6	13	112	0.00	30.293 
11:30	58.7	58.7	58.7	34	30.4	6	14	112	0.00	30.288 
11:35	58.7	58.7	58.7	37	32.5	6	13	112	0.00	30.288 
11:40	59.0	59.0	59.0	33	29.9	6	13	112	0.00	30.288 
11:45	59.2	59.2	59.2	32	29.4	7	13	90	0.00	30.285 
11:50	59.2	59.2	59.2	31	28.6	7	14	90	0.00	30.285 
11:55	59.8	59.8	59.8	30	28.3	6	13	112	0.00	30.285 
12:00	59.9	59.9	59.9	31	29.2	7	16	90	0.00	30.277 
12:05	60.4	60.4	60.4	28	27.1	6	12	112	0.00	30.277 
12:10	61.0	61.0	61.0	26	25.9	6	13	90	0.00	30.277 
12:15	61.3	61.3	61.3	28	27.9	6	15	112	0.00	30.279 
12:20	61.5	61.5	61.5	27	27.2	6	12	90	0.00	30.279 
12:25	61.5	61.5	61.5	26	26.3	6	12	112	0.00	30.279 
12:30	61.8	61.8	61.8	25	25.6	6	14	90	0.00	30.278 
12:35	62.1	62.1	62.1	28	28.6	5	11	90	0.00	30.278 
12:40	62.4	62.4	62.4	26	27.1	7	14	112	0.00	30.278 
12:45	62.6	62.6	62.6	26	27.2	5	16	90	0.00	30.273 
12:50	62.1	62.1	62.1	26	26.8	9	17	112	0.00	30.273 
12:55	62.3	62.3	62.3	26	27.0	7	14	112	0.00	30.273 
13:00	62.4	62.4	62.4	27	28.0	6	18	112	0.00	30.271 
13:05	62.7	62.7	62.7	26	27.3	7	15	112	0.00	30.271 
13:10	62.9	62.9	62.9	26	27.5	6	15	112	0.00	30.271 
13:15	62.9	62.9	62.9	27	28.4	7	14	112	0.00	30.271 
13:20	62.6	62.6	62.6	25	26.3	7	14	112	0.00	30.271 
13:25	63.1	63.1	63.1	27	28.6	5	12	90	0.00	30.271 
13:30	62.9	62.9	62.9	24	25.6	6	18	90	0.00	30.271 
13:35	62.4	62.4	62.4	26	27.1	7	16	112	0.00	30.271 
13:40	62.4	62.4	62.4	26	27.1	7	13	112	0.00	30.271 
13:45	62.6	62.6	62.6	26	27.2	8	14	112	0.00	30.269 
13:50	62.6	62.6	62.6	26	27.2	7	13	112	0.00	30.269 
13:55	62.4	62.4	62.4	25	26.1	9	16	90	0.00	30.269 
14:00	62.3	62.3	62.3	26	27.0	7	22	90	0.00	30.265 
14:05	62.1	62.1	62.1	26	26.8	8	15	112	0.00	30.265 
14:10	62.3	62.3	62.3	25	26.0	9	17	90	0.00	30.265 
14:15	62.1	62.1	62.1	27	27.7	8	14	90	0.00	30.259 
14:20	62.4	62.4	62.4	27	28.0	7	15	112	0.00	30.259 
14:25	63.1	63.1	63.1	28	29.5	6	13	90	0.00	30.259 
14:30	62.9	62.9	62.9	27	28.4	8	21	112	0.00	30.256 
14:35	62.9	62.9	62.9	27	28.4	8	17	90	0.00	30.256 
14:40	63.4	63.4	63.4	28	29.7	5	17	90	0.00	30.256 
14:45	63.5	63.5	63.5	27	28.9	7	16	112	0.00	30.246 
14:50	63.7	63.7	63.7	28	30.0	6	15	112	0.00	30.246 
14:55	63.5	63.5	63.5	26	28.0	8	18	112	0.00	30.246 
15:00	63.9	63.9	63.9	27	29.3	5	15	112	0.00	30.243 
15:05	63.9	63.9	63.9	27	29.3	5	13	90	0.00	30.243 
15:10	63.9	63.9	63.9	28	30.2	8	17	90	0.00	30.243 
15:15	63.9	63.9	63.9	26	28.3	8	16	112	0.00	30.240 
15:20	63.2	63.2	63.2	26	27.7	9	17	112	0.00	30.240 
15:25	63.4	63.4	63.4	27	28.8	6	15	90	0.00	30.240 
15:30	63.5	63.5	63.5	27	28.9	7	18	112	0.00	30.238 
15:35	63.7	63.7	63.7	28	30.0	8	15	112	0.00	30.238 
15:40	63.7	63.7	63.7	25	27.2	7	18	90	0.00	30.238 
15:45	63.7	63.7	63.7	26	28.2	8	17	90	0.00	30.236 
15:50	63.5	63.5	63.5	26	28.0	6	16	90	0.00	30.236 
15:55	63.4	63.4	63.4	28	29.7	7	16	112	0.00	30.236 
16:00	63.5	63.5	63.5	25	27.1	7	13	112	0.00	30.230 
16:05	63.5	63.5	63.5	26	28.0	7	15	112	0.00	30.230 
16:10	63.7	63.7	63.7	25	27.2	8	16	112	0.00	30.230 
16:15	63.4	63.4	63.4	23	25.0	9	16	112	0.00	30.220 
16:20	63.4	63.4	63.4	25	27.0	7	17	90	0.00	30.220 
16:25	63.9	63.9	63.9	26	28.3	6	14	112	0.00	30.220 
16:30	63.9	63.9	63.9	25	27.4	8	15	112	0.00	30.210 
16:35	63.7	63.7	63.7	24	26.2	7	19	90	0.00	30.210 
16:40	63.4	63.4	63.4	23	25.0	8	18	112	0.00	30.210 
16:45	63.2	63.2	63.2	23	24.8	8	16	90	0.00	30.210 
16:50	62.7	62.7	62.7	25	26.4	7	17	112	0.00	30.210 
16:55	62.4	62.4	62.4	27	28.0	5	15	90	0.00	30.210 
17:00	62.7	62.7	62.7	25	26.4	9	16	112	0.00	30.210 
17:05	62.7	62.7	62.7	26	27.3	7	17	90	0.00	30.210 
17:10	62.3	62.3	62.3	24	25.1	6	18	112	0.00	30.210 
17:15	62.0	62.0	62.0	25	25.8	5	13	112	0.00	30.211 
17:20	62.0	62.0	62.0	24	24.8	5	13	112	0.00	30.211 
17:25	62.1	62.1	62.1	23	23.9	5	13	90	0.00	30.211 
17:30	62.0	62.0	62.0	23	23.8	7	16	112	0.00	30.211 
17:35	61.8	61.8	61.8	22	22.6	8	16	112	0.00	30.211 
17:40	61.5	61.5	61.5	22	22.3	8	15	112	0.00	30.211 
17:45	61.6	61.6	61.6	24	24.5	5	15	112	0.00	30.219 
17:50	61.6	61.6	61.6	23	23.4	6	12	112	0.00	30.219 
17:55	61.3	61.3	61.3	22	22.1	6	15	90	0.00	30.219 
18:00	61.0	61.0	61.0	22	21.9	7	16	112	0.00	30.221 
18:05	61.2	61.2	61.2	21	21.0	8	15	90	0.00	30.221 
18:10	60.9	60.9	60.9	22	21.8	7	18	90	0.00	30.221 
18:15	60.5	60.5	60.5	21	20.4	9	17	112	0.00	30.216 
18:20	60.7	60.7	60.7	21	20.5	7	15	112	0.00	30.216 
18:25	60.5	60.5	60.5	22	21.5	6	14	90	0.00	30.216 
18:30	60.2	60.2	60.2	23	22.3	7	16	112	0.00	30.212 
18:35	59.9	59.9	59.9	23	22.0	6	14	90	0.00	30.212 
18:40	59.6	59.6	59.6	22	20.7	5	15	90	0.00	30.212 
18:45	59.3	59.3	59.3	22	20.5	8	15	112	0.00	30.211 
18:50	59.2	59.2	59.2	23	21.4	6	15	112	0.00	30.211 
18:55	59.2	59.2	59.2	22	20.4	6	14	90	0.00	30.211 
19:00	59.0	59.0	59.0	22	20.2	6	15	112	0.00	30.216 
19:05	58.7	58.7	58.7	23	21.0	6	14	90	0.00	30.216 
19:10	58.4	58.4	58.4	24	21.8	4	12	90	0.00	30.216 
19:15	58.4	58.4	58.4	23	20.8	6	12	112	0.00	30.210 
19:20	58.3	58.3	58.3	24	21.7	5	16	90	0.00	30.210 
19:25	58.1	58.1	58.1	25	22.5	2	10	90	0.00	30.210 
19:30	57.6	57.6	57.6	25	22.0	5	12	112	0.00	30.214 
19:35	57.5	57.5	57.5	24	21.0	6	12	112	0.00	30.214 
19:40	57.2	57.2	57.2	23	19.7	6	11	112	0.00	30.214 
19:45	56.9	56.9	56.9	23	19.5	4	14	112	0.00	30.215 
19:50	56.6	56.6	56.6	24	20.2	4	11	90	0.00	30.215 
19:55	56.3	56.3	56.3	23	19.0	4	12	90	0.00	30.215 
20:00	56.2	56.2	56.2	24	19.9	3	9	112	0.00	30.217 
20:05	55.9	55.9	55.9	25	20.6	2	6	90	0.00	30.217 
20:10	55.6	55.6	55.6	26	21.3	3	7	90	0.00	30.217 
20:15	55.4	55.4	55.4	26	21.1	3	6	90	0.00	30.223 
20:20	55.3	55.3	55.3	26	21.0	2	6	90	0.00	30.223 
20:25	55.1	55.1	55.1	26	20.8	3	9	90	0.00	30.223 
20:30	54.8	54.8	54.8	26	20.6	3	9	90	0.00	30.223 
20:35	54.7	54.7	54.7	26	20.5	3	14	90	0.00	30.223 
20:40	54.7	54.7	54.7	26	20.5	4	11	90	0.00	30.223 
20:45	54.5	54.5	54.5	26	20.3	3	10	90	0.00	30.226 
20:50	54.4	54.4	54.4	26	20.2	3	9	112	0.00	30.226 
20:55	54.1	54.1	54.1	27	20.9	3	7	112	0.00	30.226 
21:00	53.9	53.9	53.9	27	20.7	4	12	112	0.00	30.227 
21:05	53.9	53.9	53.9	26	19.8	5	11	112	0.00	30.227 
21:10	53.8	53.8	53.8	24	17.9	5	10	90	0.00	30.227 
21:15	53.8	53.8	53.8	24	17.9	5	12	90	0.00	30.227 
21:20	53.6	53.6	53.6	25	18.6	4	10	90	0.00	30.227 
21:25	53.5	53.5	53.5	25	18.6	5	11	90	0.00	30.227 
21:30	53.3	53.3	53.3	26	19.3	5	11	90	0.00	30.227 
21:35	53.3	53.3	53.3	26	19.3	5	14	112	0.00	30.227 
21:40	53.2	53.2	53.2	26	19.2	4	10	112	0.00	30.227 
21:45	53.1	53.1	53.1	27	20.0	4	8	90	0.00	30.228 
21:50	52.9	52.9	52.9	28	20.7	3	10	90	0.00	30.228 
21:55	52.9	52.9	52.9	27	19.8	6	10	90	0.00	30.228 
22:00	52.8	52.8	52.8	27	19.8	5	14	112	0.00	30.224 
22:05	52.6	52.6	52.6	31	22.8	5	13	90	0.00	30.224 
22:10	52.6	52.6	52.6	27	19.6	6	14	90	0.00	30.224 
22:15	52.5	52.5	52.5	27	19.5	5	14	90	0.00	30.223 
22:20	52.3	52.3	52.3	28	20.2	6	13	90	0.00	30.223 
22:25	52.3	52.3	52.3	29	21.0	5	11	90	0.00	30.223 
22:30	52.2	52.2	52.2	29	20.9	6	13	90	0.00	30.223 
22:35	52.0	52.0	52.0	29	20.7	6	13	90	0.00	30.223 
22:40	51.9	51.9	51.9	31	22.2	7	15	90	0.00	30.223 
22:45	51.7	51.7	51.7	31	22.1	6	12	90	0.00	30.222 
22:50	51.6	51.6	51.6	32	22.7	5	10	90	0.00	30.222 
22:55	51.4	51.4	51.4	32	22.5	5	11	90	0.00	30.222 
23:00	51.3	51.3	51.3	32	22.5	5	10	90	0.00	30.224 
23:05	51.3	51.3	51.3	32	22.5	5	10	90	0.00	30.224 
23:10	51.1	51.1	51.1	33	23.0	5	11	90	0.00	30.224 
23:15	51.1	51.1	51.1	32	22.3	4	11	90	0.00	30.212 
23:20	51.1	51.1	51.1	33	23.0	6	11	112	0.00	30.212 
23:25	51.1	51.1	51.1	33	23.0	7	15	90	0.00	30.212 
23:30	51.0	51.0	51.0	33	22.9	6	14	90	0.00	30.209 
23:35	50.8	50.8	50.8	34	23.5	6	11	90	0.00	30.209 
23:40	50.7	50.7	50.7	34	23.4	5	12	90	0.00	30.209 
23:45	50.7	50.7	50.7	34	23.4	4	10	90	0.00	30.220 
23:50	50.5	50.5	50.5	34	23.2	4	9	90	0.00	30.220 
23:55	50.4	50.4	50.4	35	23.8	3	11	90	0.00	30.220 

CoCoRaHS
IN-AL-39
A2 Web Hosting
Creative Commons License
GoDaddy
search engine by freefind advanced

loaded 2018-11-16 11:36:59 • last modified 2010-11-18 10:43:29
Privacy PolicyDisclaimer
• wx.awcolley.com is powered by PmWiki v.2002016 •
• all content (unless otherwise noted) © 2018 A W Colley